Terminal Aerodrome Forecast
Issued by NWS

Home | Current Version | Previous Version | Graphics & Text | Print | Product List | Glossary On
Versions: 1 2 3 4 5 6 7 8 9 10 11 12 13 14 15 16
000
FTUS43 KMPX 251120
TAFRNH
TAF
KRNH 251120Z 2512/2612 29011G17KT P6SM OVC018
      TEMPO 2513/2516 BKN013 OVC018
     FM251800 30014G22KT P6SM VCSH BKN040
     FM260100 31005KT P6SM FEW050=

USA.gov is the U.S. government's official web portal to all federal, state and local government web resources and services.